Terminal Aerodrome Forecast
Issued by NWS

Home | Current Version | Previous Version | Text Only | Print | Product List | Glossary On
Versions: 1 2 3 4 5 6 7 8 9 10 11 12 13 14 15 16
000
FTUS45 KPIH 291100
TAFSUN
TAF
KSUN 291130Z 2912/3012 33008KT P6SM BKN080
     FM291700 13008KT P6SM VCSH BKN025 BKN080
     FM300300 31011KT P6SM SCT035 BKN070
      AMD LTD TO CLD VIS AND WIND TIL 291400=

USA.gov is the U.S. government's official web portal to all federal, state and local government web resources and services.